createdAt,value
2018-12-03T00:00:20.836Z,99544.14
2018-12-03T00:02:50.324Z,99540.69
2018-12-03T00:05:18.861Z,99540.69
2018-12-03T00:07:49.337Z,99540.76
2018-12-03T00:10:19.427Z,99548.36
2018-12-03T00:12:48.185Z,99546.02
2018-12-03T00:15:17.422Z,99545.78
2018-12-03T00:17:46.363Z,99545.94
2018-12-03T00:20:15.648Z,99540.59
2018-12-03T00:22:44.743Z,99545.32
2018-12-03T00:25:13.187Z,99541.16
2018-12-03T00:27:49.146Z,99538.16
2018-12-03T00:30:17.568Z,99545.45
2018-12-03T00:32:45.897Z,99538.61
2018-12-03T00:35:14.357Z,99545.30
2018-12-03T00:37:42.675Z,99540.70
2018-12-03T00:40:11.056Z,99544.89
2018-12-03T00:42:39.326Z,99541.56
2018-12-03T00:45:07.810Z,99540.38
2018-12-03T00:47:36.163Z,99552.11
2018-12-03T00:50:04.729Z,99539.91
2018-12-03T00:52:33.128Z,99544.34
2018-12-03T00:55:01.458Z,99546.75
2018-12-03T00:57:29.932Z,99537.58
2018-12-03T00:59:59.794Z,99536.73
2018-12-03T01:02:28.143Z,99535.36
2018-12-03T01:04:56.583Z,99541.68
2018-12-03T01:07:25.107Z,99535.22
2018-12-03T01:09:53.563Z,99543.43
2018-12-03T01:12:22.028Z,99535.97
2018-12-03T01:14:50.354Z,99538.77
2018-12-03T01:17:18.783Z,99531.61
2018-12-03T01:19:47.113Z,99542.01
2018-12-03T01:22:15.540Z,99546.62
2018-12-03T01:24:44.182Z,99544.50
2018-12-03T01:27:12.724Z,99546.63
2018-12-03T01:29:41.206Z,99542.51
2018-12-03T01:32:09.924Z,99543.23
2018-12-03T01:34:38.323Z,99547.52
2018-12-03T01:37:06.654Z,99556.31
2018-12-03T01:39:35.020Z,99558.58
2018-12-03T01:42:03.365Z,99553.31
2018-12-03T01:44:31.744Z,99564.84
2018-12-03T01:47:00.149Z,99559.55
2018-12-03T01:49:28.590Z,99561.79
2018-12-03T01:51:57.058Z,99557.98
2018-12-03T01:54:25.728Z,99561.60
2018-12-03T01:56:54.180Z,99554.78
2018-12-03T01:59:22.775Z,99550.10
2018-12-03T02:01:51.245Z,99551.07
2018-12-03T02:04:20.033Z,99538.33
2018-12-03T02:06:48.355Z,99542.13
2018-12-03T02:09:16.846Z,99538.48
2018-12-03T02:11:45.592Z,99534.69
2018-12-03T02:14:13.906Z,99539.05
2018-12-03T02:16:42.342Z,99539.47
2018-12-03T02:22:15.906Z,99549.58
2018-12-03T02:24:44.651Z,99545.81
2018-12-03T02:27:12.990Z,99540.95
2018-12-03T02:29:41.332Z,99543.74
2018-12-03T02:32:09.851Z,99543.44
2018-12-03T02:34:38.582Z,99547.08
2018-12-03T02:37:07.058Z,99538.36
2018-12-03T02:39:35.771Z,99538.39
2018-12-03T02:42:04.080Z,99545.41
2018-12-03T02:44:32.344Z,99542.91
2018-12-03T02:47:00.715Z,99548.23
2018-12-03T02:49:30.368Z,99540.17
2018-12-03T02:51:58.962Z,99546.31
2018-12-03T02:54:27.252Z,99544.03
2018-12-03T02:56:55.567Z,99552.16
2018-12-03T02:59:23.997Z,99554.84
2018-12-03T03:01:52.399Z,99554.34
2018-12-03T03:04:20.736Z,99554.19
2018-12-03T03:06:49.445Z,99558.55
2018-12-03T03:09:17.922Z,99555.09
2018-12-03T03:11:46.406Z,99550.58
2018-12-03T03:14:14.739Z,99560.52
2018-12-03T03:16:43.160Z,99560.26
2018-12-03T03:19:11.607Z,99556.39
2018-12-03T03:21:40.120Z,99559.37
2018-12-03T03:24:08.615Z,99563.09
2018-12-03T03:26:37.215Z,99555.52
2018-12-03T03:29:06.814Z,99557.61
2018-12-03T03:31:35.266Z,99553.34
2018-12-03T03:34:03.592Z,99551.25
2018-12-03T03:36:31.935Z,99549.38
2018-12-03T03:39:00.286Z,99553.19
2018-12-03T03:41:28.637Z,99547.20
2018-12-03T03:43:58.367Z,99548.11
2018-12-03T03:46:25.629Z,99547.30
2018-12-03T03:48:53.993Z,99544.77
2018-12-03T03:51:22.320Z,99534.71
2018-12-03T03:53:50.691Z,99541.06
2018-12-03T03:56:19.006Z,99541.31
2018-12-03T03:58:47.394Z,99543.81
2018-12-03T04:01:15.714Z,99549.60
2018-12-03T04:03:44.147Z,99551.47
2018-12-03T04:06:12.460Z,99553.41
2018-12-03T04:08:40.728Z,99553.81
2018-12-03T04:11:09.037Z,99548.33
2018-12-03T04:13:37.462Z,99543.00
2018-12-03T04:16:05.784Z,99544.22
2018-12-03T04:18:34.285Z,99540.91
2018-12-03T04:21:03.054Z,99542.13
2018-12-03T04:23:31.376Z,99538.58
2018-12-03T04:25:59.718Z,99535.49
2018-12-03T04:28:28.017Z,99530.01
2018-12-03T04:30:56.313Z,99530.17
2018-12-03T04:33:24.627Z,99532.98
2018-12-03T04:35:53.124Z,99530.89
2018-12-03T04:38:21.439Z,99526.22
2018-12-03T04:40:49.741Z,99524.59
2018-12-03T04:43:18.051Z,99532.48
2018-12-03T04:45:46.402Z,99528.58
2018-12-03T04:48:15.161Z,99529.36
2018-12-03T04:50:43.470Z,99517.99
2018-12-03T04:53:11.763Z,99530.42
2018-12-03T04:55:40.073Z,99534.84
2018-12-03T04:58:08.412Z,99531.97
2018-12-03T05:03:33.506Z,99523.74
2018-12-03T05:06:02.713Z,99527.55
2018-12-03T05:08:31.910Z,99514.86
2018-12-03T05:11:01.244Z,99518.50
2018-12-03T05:13:30.471Z,99516.23
2018-12-03T05:15:59.797Z,99518.00
2018-12-03T05:18:29.089Z,99517.78
2018-12-03T05:20:58.496Z,99515.60
2018-12-03T05:23:27.591Z,99508.74
2018-12-03T05:25:56.806Z,99502.91
2018-12-03T05:28:25.996Z,99503.16
2018-12-03T05:30:55.342Z,99502.53
2018-12-03T05:33:24.698Z,99500.25
2018-12-03T05:35:53.917Z,99501.38
2018-12-03T05:38:23.108Z,99498.48
2018-12-03T05:40:52.531Z,99501.73
2018-12-03T05:43:21.794Z,99498.08
2018-12-03T05:45:50.986Z,99505.49
2018-12-03T05:48:20.080Z,99503.31
2018-12-03T05:50:49.294Z,99508.41
2018-12-03T05:53:18.497Z,99507.85
2018-12-03T05:55:47.796Z,99514.14
2018-12-03T05:58:16.851Z,99514.88
2018-12-03T06:00:46.102Z,99514.06
2018-12-03T06:03:24.655Z,99508.98
2018-12-03T06:05:53.920Z,99510.27
2018-12-03T06:08:23.332Z,99512.34
2018-12-03T06:10:52.417Z,99512.70
2018-12-03T06:13:21.624Z,99501.21
2018-12-03T06:15:50.999Z,99514.14
2018-12-03T06:18:20.205Z,99510.10
2018-12-03T06:20:49.604Z,99501.62
2018-12-03T06:23:18.804Z,99500.56
2018-12-03T06:25:47.998Z,99508.65
2018-12-03T06:28:17.066Z,99503.91
2018-12-03T06:30:46.311Z,99495.75
2018-12-03T06:33:15.728Z,99497.43
2018-12-03T06:35:45.040Z,99500.98
2018-12-03T06:38:15.526Z,99493.81
2018-12-03T06:40:43.299Z,99490.58
2018-12-03T06:43:12.670Z,99500.27
2018-12-03T06:45:41.924Z,99497.99
2018-12-03T06:48:14.322Z,99505.27
2018-12-03T06:50:43.571Z,99499.47
2018-12-03T06:53:12.947Z,99495.84
2018-12-03T06:55:42.258Z,99494.38
2018-12-03T06:58:11.454Z,99491.88
2018-12-03T07:00:41.013Z,99492.69
2018-12-03T07:03:10.246Z,99502.60
2018-12-03T07:05:39.679Z,99493.25
2018-12-03T07:08:09.625Z,99492.27
2018-12-03T07:10:39.039Z,99492.59
2018-12-03T07:13:10.039Z,99490.09
2018-12-03T07:15:41.021Z,99498.41
2018-12-03T07:18:10.812Z,99501.38
2018-12-03T07:20:40.119Z,99513.23
2018-12-03T07:23:09.468Z,99511.80
2018-12-03T07:25:38.774Z,99514.45
2018-12-03T07:28:07.989Z,99511.28
2018-12-03T07:30:37.421Z,99517.02
2018-12-03T07:33:06.633Z,99515.58
2018-12-03T07:35:35.767Z,99516.85
2018-12-03T07:38:05.001Z,99524.12
2018-12-03T07:40:34.275Z,99526.06
2018-12-03T07:43:03.665Z,99534.78
2018-12-03T07:45:32.981Z,99524.12
2018-12-03T07:48:02.175Z,99518.88
2018-12-03T07:50:31.479Z,99523.25
2018-12-03T07:53:00.834Z,99528.87
2018-12-03T07:55:30.482Z,99520.16
2018-12-03T07:58:02.760Z,99522.52
2018-12-03T08:00:45.143Z,99518.22
2018-12-03T08:03:14.443Z,99518.05
2018-12-03T08:05:43.767Z,99510.95
2018-12-03T08:08:12.842Z,99519.52
2018-12-03T08:10:43.413Z,99520.55
2018-12-03T08:13:13.847Z,99516.22
2018-12-03T08:15:43.139Z,99516.61
2018-12-03T08:18:14.205Z,99513.52
2018-12-03T08:20:45.866Z,99514.33
2018-12-03T08:23:18.584Z,99513.37
2018-12-03T08:25:47.792Z,99517.00
2018-12-03T08:28:16.862Z,99505.36
2018-12-03T08:30:45.983Z,99503.53
2018-12-03T08:33:15.091Z,99513.59
2018-12-03T08:35:44.291Z,99517.00
2018-12-03T08:38:13.556Z,99512.78
2018-12-03T08:40:42.993Z,99516.55
2018-12-03T08:44:15.247Z,99523.02
2018-12-03T08:46:44.554Z,99521.30
2018-12-03T08:49:13.874Z,99525.59
2018-12-03T08:51:43.155Z,99517.50
2018-12-03T08:54:12.230Z,99521.05
2018-12-03T08:56:46.231Z,99521.05
2018-12-03T08:59:15.561Z,99518.45
2018-12-03T09:01:44.682Z,99519.01
2018-12-03T09:04:16.197Z,99521.47
2018-12-03T09:06:45.299Z,99516.47
2018-12-03T09:09:15.958Z,99514.28
2018-12-03T09:11:49.743Z,99510.30
2018-12-03T09:14:20.155Z,99521.57
2018-12-03T09:16:49.369Z,99520.27
2018-12-03T09:19:18.746Z,99524.45
2018-12-03T09:21:48.065Z,99518.48
2018-12-03T09:24:17.168Z,99525.69
2018-12-03T09:26:46.459Z,99524.14
2018-12-03T09:29:15.550Z,99528.02
2018-12-03T09:31:44.782Z,99511.92
2018-12-03T09:34:14.040Z,99515.97
2018-12-03T09:36:43.269Z,99519.84
2018-12-03T09:39:16.669Z,99525.33
2018-12-03T09:41:46.512Z,99522.64
2018-12-03T09:44:16.018Z,99523.63
2018-12-03T09:46:45.287Z,99536.47
2018-12-03T09:49:14.551Z,99539.61
2018-12-03T09:51:44.215Z,99530.88
2018-12-03T09:54:13.372Z,99523.05
2018-12-03T09:56:50.644Z,99526.13
2018-12-03T09:59:23.245Z,99528.35
2018-12-03T10:01:56.231Z,99529.02
2018-12-03T10:04:31.799Z,99531.77
2018-12-03T10:07:01.272Z,99518.45
2018-12-03T10:09:35.686Z,99514.97
2018-12-03T10:12:04.990Z,99512.71
2018-12-03T10:14:34.176Z,99517.16
2018-12-03T10:17:03.598Z,99515.14
2018-12-03T10:19:32.865Z,99516.19
2018-12-03T10:22:09.045Z,99512.50
2018-12-03T10:24:38.575Z,99519.51
2018-12-03T10:27:11.576Z,99513.07
2018-12-03T10:29:41.292Z,99507.67
2018-12-03T10:32:11.470Z,99499.95
2018-12-03T10:34:40.571Z,99512.56
2018-12-03T10:37:09.770Z,99507.30
2018-12-03T10:39:39.123Z,99510.12
2018-12-03T10:42:13.822Z,99513.31
2018-12-03T10:44:42.889Z,99509.65
2018-12-03T10:47:12.092Z,99509.75
2018-12-03T10:49:41.495Z,99502.97
2018-12-03T10:52:10.718Z,99504.80
2018-12-03T10:54:42.251Z,99500.59
2018-12-03T10:57:12.109Z,99500.63
2018-12-03T10:59:41.626Z,99497.63
2018-12-03T11:02:15.710Z,99500.62
2018-12-03T11:04:49.083Z,99481.33
2018-12-03T11:07:18.467Z,99472.47
2018-12-03T11:09:47.775Z,99487.42
2018-12-03T11:12:17.023Z,99498.53
2018-12-03T11:14:46.259Z,99498.09
2018-12-03T11:17:15.576Z,99488.16
2018-12-03T11:19:47.949Z,99501.81
2018-12-03T11:22:21.631Z,99500.39
2018-12-03T11:24:50.836Z,99499.00
2018-12-03T11:27:21.131Z,99497.56
2018-12-03T11:29:50.295Z,99492.23
2018-12-03T11:32:20.963Z,99492.02
2018-12-03T11:34:49.942Z,99502.96
2018-12-03T11:37:20.483Z,99495.17
2018-12-03T11:39:56.200Z,99503.52
2018-12-03T11:42:27.627Z,99499.33
2018-12-03T11:44:56.771Z,99500.75
2018-12-03T11:47:26.016Z,99496.80
2018-12-03T11:49:54.962Z,99503.59
2018-12-03T11:52:24.343Z,99493.98
2018-12-03T11:54:53.597Z,99490.05
2018-12-03T11:57:22.683Z,99490.06
2018-12-03T11:59:51.862Z,99486.31
2018-12-03T12:02:21.133Z,99498.83
2018-12-03T12:04:50.256Z,99507.08
2018-12-03T12:07:19.267Z,99501.46
2018-12-03T12:09:48.487Z,99496.80
2018-12-03T12:12:17.835Z,99499.81
2018-12-03T12:14:47.142Z,99492.98
2018-12-03T12:17:16.487Z,99507.36
2018-12-03T12:19:45.678Z,99498.55
2018-12-03T12:22:14.883Z,99497.28
2018-12-03T12:24:44.125Z,99503.30
2018-12-03T12:27:13.427Z,99508.53
2018-12-03T12:29:42.749Z,99496.64
2018-12-03T12:32:11.871Z,99495.69
2018-12-03T12:34:41.130Z,99505.19
2018-12-03T12:37:10.476Z,99497.16
2018-12-03T12:39:39.730Z,99504.43
2018-12-03T12:42:09.211Z,99504.16
2018-12-03T12:44:38.679Z,99503.19
2018-12-03T12:47:08.223Z,99501.33
2018-12-03T12:49:37.348Z,99504.09
2018-12-03T12:52:07.235Z,99507.05
2018-12-03T12:54:36.578Z,99497.39
2018-12-03T12:57:05.929Z,99501.81
2018-12-03T12:59:35.090Z,99494.99
2018-12-03T13:02:04.306Z,99501.42
2018-12-03T13:04:33.529Z,99502.89
2018-12-03T13:07:02.898Z,99501.69
2018-12-03T13:09:32.205Z,99501.12
2018-12-03T13:12:01.290Z,99508.51
2018-12-03T13:14:30.594Z,99507.14
2018-12-03T13:16:59.899Z,99500.90
2018-12-03T13:19:29.379Z,99522.27
2018-12-03T13:21:58.510Z,99520.73
2018-12-03T13:24:27.697Z,99516.67
2018-12-03T13:26:57.395Z,99518.38
2018-12-03T13:29:26.688Z,99518.83
2018-12-03T13:31:55.694Z,99511.77
2018-12-03T13:34:24.933Z,99508.09
2018-12-03T13:36:54.247Z,99510.19
2018-12-03T13:39:23.519Z,99506.87
2018-12-03T13:41:52.895Z,99511.74
2018-12-03T13:44:22.083Z,99503.70
2018-12-03T13:46:51.516Z,99511.26
2018-12-03T13:49:20.591Z,99511.83
2018-12-03T13:51:49.697Z,99510.95
2018-12-03T13:54:18.989Z,99505.20
2018-12-03T13:56:48.293Z,99512.44
2018-12-03T13:59:17.569Z,99513.37
2018-12-03T14:01:47.960Z,99520.35
2018-12-03T14:04:16.486Z,99516.08
2018-12-03T14:06:54.860Z,99517.52
2018-12-03T14:11:37.919Z,99516.62
2018-12-03T14:14:15.627Z,99519.78
2018-12-03T14:16:51.896Z,99525.59
2018-12-03T14:19:23.727Z,99522.37
2018-12-03T14:22:06.821Z,99525.97
2018-12-03T14:24:42.903Z,99524.17
2018-12-03T14:27:12.163Z,99529.23
2018-12-03T14:29:41.971Z,99523.25
2018-12-03T14:32:11.170Z,99525.11
2018-12-03T14:34:40.530Z,99524.81
2018-12-03T14:37:10.130Z,99531.68
2018-12-03T14:39:39.335Z,99534.75
2018-12-03T14:42:08.667Z,99536.56
2018-12-03T14:44:37.943Z,99537.87
2018-12-03T14:47:07.290Z,99540.75
2018-12-03T14:49:36.570Z,99546.35
2018-12-03T14:52:05.769Z,99547.31
2018-12-03T14:54:34.911Z,99549.63
2018-12-03T14:57:04.282Z,99552.63
2018-12-03T14:59:33.378Z,99558.95
2018-12-03T15:02:02.660Z,99549.48
2018-12-03T15:04:32.023Z,99549.14
2018-12-03T15:07:01.251Z,99551.14
2018-12-03T15:09:30.450Z,99554.62
2018-12-03T15:11:59.903Z,99550.68
2018-12-03T15:14:29.112Z,99559.23
2018-12-03T15:16:58.535Z,99562.13
2018-12-03T15:19:27.512Z,99565.59
2018-12-03T15:21:56.751Z,99563.08
2018-12-03T15:24:26.139Z,99559.70
2018-12-03T15:26:55.381Z,99565.67
2018-12-03T15:29:24.619Z,99568.16
2018-12-03T15:31:54.000Z,99567.20
2018-12-03T15:34:23.110Z,99563.56
2018-12-03T15:36:52.527Z,99567.69
2018-12-03T15:39:21.841Z,99567.77
2018-12-03T15:41:51.139Z,99571.79
2018-12-03T15:44:20.225Z,99568.17
2018-12-03T15:46:49.586Z,99575.09
2018-12-03T15:49:18.739Z,99578.13
2018-12-03T15:51:48.139Z,99581.75
2018-12-03T15:54:17.347Z,99582.14
2018-12-03T15:56:46.756Z,99582.35
2018-12-03T15:59:16.013Z,99583.37
2018-12-03T16:01:45.363Z,99583.31
2018-12-03T16:04:14.522Z,99580.02
2018-12-03T16:06:44.011Z,99576.45
2018-12-03T16:09:43.437Z,99571.23
2018-12-03T16:12:11.010Z,99574.08
2018-12-03T16:14:38.651Z,99579.25
2018-12-03T16:17:06.290Z,99579.35
2018-12-03T16:19:33.856Z,99586.83
2018-12-03T16:22:01.472Z,99581.69
2018-12-03T16:24:29.042Z,99577.62
2018-12-03T16:26:56.674Z,99579.66
2018-12-03T16:29:24.246Z,99582.14
2018-12-03T16:31:52.723Z,99578.55
2018-12-03T16:34:20.287Z,99576.31
2018-12-03T16:36:47.867Z,99576.97
2018-12-03T16:39:15.449Z,99580.84
2018-12-03T16:41:43.057Z,99580.03
2018-12-03T16:44:10.633Z,99586.55
2018-12-03T16:46:38.273Z,99588.23
2018-12-03T16:49:05.866Z,99588.14
2018-12-03T16:51:33.447Z,99588.03
2018-12-03T16:54:01.044Z,99588.26
2018-12-03T16:56:28.642Z,99590.66
2018-12-03T16:58:56.305Z,99588.79
2018-12-03T17:01:23.855Z,99588.39
2018-12-03T17:03:51.498Z,99588.44
2018-12-03T17:06:19.066Z,99590.84
2018-12-03T17:08:46.772Z,99593.92
2018-12-03T17:11:14.318Z,99584.73
2018-12-03T17:13:42.247Z,99586.06
2018-12-03T17:16:09.827Z,99571.74
2018-12-03T17:18:37.562Z,99577.95
2018-12-03T17:21:05.232Z,99576.41
2018-12-03T17:23:33.335Z,99592.55
2018-12-03T17:26:00.891Z,99589.92
2018-12-03T17:28:28.663Z,99592.94
2018-12-03T17:30:57.191Z,99601.05
2018-12-03T17:33:24.789Z,99606.63
2018-12-03T17:35:52.354Z,99609.48
2018-12-03T17:38:20.019Z,99612.53
2018-12-03T17:40:47.783Z,99610.05
2018-12-03T17:43:15.348Z,99609.08
2018-12-03T17:45:42.901Z,99604.56
2018-12-03T17:48:10.579Z,99603.76
2018-12-03T17:50:38.126Z,99601.41
2018-12-03T17:53:06.710Z,99598.66
2018-12-03T17:55:34.264Z,99597.00
2018-12-03T17:58:01.995Z,99589.30
2018-12-03T18:00:29.747Z,99594.31
2018-12-03T18:02:57.396Z,99598.34
2018-12-03T18:05:25.066Z,99598.23
2018-12-03T18:07:52.612Z,99596.86
2018-12-03T18:10:20.150Z,99595.35
2018-12-03T18:12:47.699Z,99599.01
2018-12-03T18:15:15.427Z,99596.23
2018-12-03T18:17:43.207Z,99590.44
2018-12-03T18:20:10.773Z,99594.09
2018-12-03T18:22:38.335Z,99589.05
2018-12-03T18:25:05.995Z,99592.02
2018-12-03T18:27:33.655Z,99585.62
2018-12-03T18:30:01.217Z,99598.59
2018-12-03T18:32:29.256Z,99599.59
2018-12-03T18:34:56.825Z,99604.98
2018-12-03T18:37:24.498Z,99605.19
2018-12-03T18:39:52.086Z,99606.51
2018-12-03T18:42:19.651Z,99587.19
2018-12-03T18:44:47.287Z,99595.06
2018-12-03T18:47:14.830Z,99595.06
2018-12-03T18:49:42.570Z,99584.61
2018-12-03T18:52:10.257Z,99577.52
2018-12-03T18:54:37.826Z,99582.69
2018-12-03T18:57:05.379Z,99586.52
2018-12-03T18:59:32.941Z,99580.80
2018-12-03T19:02:00.492Z,99580.48
2018-12-03T19:04:28.059Z,99579.64
2018-12-03T19:06:55.599Z,99576.09
2018-12-03T19:09:23.165Z,99574.99
2018-12-03T19:11:50.850Z,99576.73
2018-12-03T19:14:18.415Z,99579.25
2018-12-03T19:16:45.995Z,99577.97
2018-12-03T19:19:13.708Z,99581.66
2018-12-03T19:21:41.401Z,99584.02
2018-12-03T19:24:08.963Z,99581.79
2018-12-03T19:26:36.894Z,99583.57
2018-12-03T19:29:04.443Z,99583.34
2018-12-03T19:31:32.989Z,99577.72
2018-12-03T19:34:01.369Z,99573.80
2018-12-03T19:36:29.826Z,99575.57
2018-12-03T19:38:59.038Z,99572.95
2018-12-03T19:41:27.012Z,99568.88
2018-12-03T19:43:55.013Z,99568.84
2018-12-03T19:46:22.822Z,99573.73
2018-12-03T19:48:50.484Z,99568.78
2018-12-03T19:51:18.109Z,99574.23
2018-12-03T19:53:45.867Z,99579.56
2018-12-03T19:56:13.886Z,99587.33
2018-12-03T19:58:45.444Z,99592.69
2018-12-03T20:01:14.643Z,99590.36
2018-12-03T20:03:42.759Z,99597.23
2018-12-03T20:06:11.235Z,99593.97
2018-12-03T20:08:39.064Z,99601.00
2018-12-03T20:11:08.046Z,99598.26
2018-12-03T20:13:36.843Z,99597.60
2018-12-03T20:16:04.662Z,99600.33
2018-12-03T20:18:33.130Z,99599.98
2018-12-03T20:21:00.908Z,99599.72
2018-12-03T20:23:28.602Z,99609.14
2018-12-03T20:25:59.600Z,99598.16
2018-12-03T20:28:27.484Z,99592.38
2018-12-03T20:30:58.422Z,99582.63
2018-12-03T20:33:27.818Z,99584.52
2018-12-03T20:35:57.188Z,99576.20
2018-12-03T20:38:25.964Z,99583.05
2018-12-03T20:40:54.758Z,99574.66
2018-12-03T20:43:22.909Z,99578.27
2018-12-03T20:45:55.899Z,99584.67
2018-12-03T20:48:27.119Z,99590.12
2018-12-03T20:50:59.613Z,99599.20
2018-12-03T20:53:28.702Z,99595.88
2018-12-03T20:55:56.449Z,99598.40
2018-12-03T20:58:26.553Z,99585.32
2018-12-03T21:01:03.566Z,99579.25
2018-12-03T21:03:31.169Z,99584.80
2018-12-03T21:05:59.746Z,99577.41
2018-12-03T21:08:28.093Z,99579.80
2018-12-03T21:10:55.684Z,99589.16
2018-12-03T21:13:24.331Z,99581.32
2018-12-03T21:15:53.739Z,99580.92
2018-12-03T21:18:21.596Z,99578.73
2018-12-03T21:20:50.095Z,99578.54
2018-12-03T21:23:18.295Z,99574.64
2018-12-03T21:25:45.928Z,99572.64
2018-12-03T21:28:13.658Z,99565.63
2018-12-03T21:30:41.270Z,99567.41
2018-12-03T21:33:08.843Z,99565.75
2018-12-03T21:35:38.155Z,99562.02
2018-12-03T21:38:05.929Z,99560.75
2018-12-03T21:40:36.063Z,99559.47
2018-12-03T21:43:03.836Z,99564.52
2018-12-03T21:45:31.644Z,99567.26
2018-12-03T21:47:59.744Z,99565.00
2018-12-03T21:50:27.446Z,99566.11
2018-12-03T21:52:55.086Z,99566.41
2018-12-03T21:55:24.704Z,99563.16
2018-12-03T21:57:54.175Z,99558.95
2018-12-03T22:00:21.919Z,99553.41
2018-12-03T22:02:53.247Z,99557.99
2018-12-03T22:05:20.922Z,99554.27
2018-12-03T22:07:48.767Z,99554.97
2018-12-03T22:10:17.146Z,99556.20
2018-12-03T22:12:44.877Z,99557.48
2018-12-03T22:15:13.018Z,99565.08
2018-12-03T22:17:41.521Z,99563.87
2018-12-03T22:20:09.710Z,99564.64
2018-12-03T22:22:37.312Z,99570.33
2018-12-03T22:25:05.141Z,99568.63
2018-12-03T22:27:33.112Z,99574.90
2018-12-03T22:30:01.065Z,99576.38
2018-12-03T22:32:30.002Z,99583.09
2018-12-03T22:34:58.804Z,99590.37
2018-12-03T22:37:27.906Z,99588.93
2018-12-03T22:39:57.067Z,99591.51
2018-12-03T22:42:25.827Z,99601.48
2018-12-03T22:44:54.179Z,99608.31
2018-12-03T22:47:22.228Z,99609.30
2018-12-03T22:49:50.246Z,99601.62
2018-12-03T22:52:18.313Z,99598.19
2018-12-03T22:54:46.334Z,99600.44
2018-12-03T22:57:14.512Z,99604.58
2018-12-03T22:59:42.742Z,99609.81
2018-12-03T23:02:11.414Z,99608.81
2018-12-03T23:04:39.938Z,99605.48
2018-12-03T23:07:08.628Z,99608.78
2018-12-03T23:09:36.546Z,99606.27
2018-12-03T23:12:04.560Z,99610.05
2018-12-03T23:14:33.058Z,99610.55
2018-12-03T23:17:01.561Z,99606.97
2018-12-03T23:19:30.359Z,99606.85
2018-12-03T23:21:58.127Z,99611.55
2018-12-03T23:24:26.302Z,99616.02
2018-12-03T23:26:54.011Z,99613.41
2018-12-03T23:29:22.279Z,99607.23
2018-12-03T23:31:50.450Z,99604.80
2018-12-03T23:34:18.762Z,99609.78
2018-12-03T23:36:47.886Z,99598.52
2018-12-03T23:39:16.082Z,99601.92
2018-12-03T23:41:45.049Z,99598.34
2018-12-03T23:44:13.567Z,99598.59
2018-12-03T23:46:42.224Z,99600.56
2018-12-03T23:49:10.569Z,99600.56
2018-12-03T23:51:38.561Z,99611.16
2018-12-03T23:54:07.182Z,99612.81
2018-12-03T23:56:36.634Z,99616.95
2018-12-03T23:59:05.526Z,99615.48
